Time;durP1;ratioP1;P1;durP2;ratioP2;P2;SDS_P1;SDS_P2;PMS_P1;PMS_P2;Temp;Humidity;BMP_temperature;BMP_pressure;BME280_temperature;BME280_humidity;BME280_pressure;Samples;Min_cycle;Max_cycle;Signal;HPM_P1;HPM_P2
2022/01/31 00:00:06;;;;;;;25.05;13.90;;;;;;;;;;5011587;28;20037;-64
2022/01/31 00:02:39;;;;;;;28.58;14.75;;;;;;;;;;5006947;28;20057;-64
2022/01/31 00:05:06;;;;;;;31.10;16.42;;;;;;;;;;4991645;28;20481;-64
2022/01/31 00:07:32;;;;;;;30.85;15.65;;;;;;;;;;4992135;28;20355;-64
2022/01/31 00:09:58;;;;;;;32.70;17.13;;;;;;;;;;4992952;28;20034;-64
2022/01/31 00:12:28;;;;;;;37.50;18.38;;;;;;;;;;4993197;28;20030;-64
2022/01/31 00:15:00;;;;;;;41.88;21.25;;;;;;;;;;4993369;28;20070;-63
2022/01/31 00:17:26;;;;;;;41.42;20.90;;;;;;;;;;4992674;28;20092;-63
2022/01/31 00:19:52;;;;;;;42.30;20.83;;;;;;;;;;4993390;28;20042;-62
2022/01/31 00:22:18;;;;;;;39.08;20.05;;;;;;;;;;4993321;28;20045;-64
2022/01/31 00:24:43;;;;;;;41.97;19.10;;;;;;;;;;4993136;28;20042;-63
2022/01/31 00:27:09;;;;;;;48.90;24.20;;;;;;;;;;4992809;28;20030;-62
2022/01/31 00:29:35;;;;;;;52.88;24.55;;;;;;;;;;4991373;28;20026;-64
2022/01/31 00:32:02;;;;;;;54.15;27.45;;;;;;;;;;4996148;28;20477;-62
2022/01/31 00:34:28;;;;;;;56.58;27.60;;;;;;;;;;4997219;28;20106;-64
2022/01/31 00:36:54;;;;;;;43.83;20.55;;;;;;;;;;4997012;28;20453;-63
2022/01/31 00:39:21;;;;;;;35.10;18.40;;;;;;;;;;4995675;28;20080;-62
2022/01/31 00:41:47;;;;;;;35.78;18.00;;;;;;;;;;4989839;28;20141;-63
2022/01/31 00:44:17;;;;;;;28.45;15.35;;;;;;;;;;4996298;28;20018;-63
2022/01/31 00:46:51;;;;;;;31.38;15.95;;;;;;;;;;4995971;28;20469;-62
2022/01/31 00:51:50;;;;;;;24.88;14.30;;;;;;;;;;4999178;28;20657;-63
2022/01/31 00:54:16;;;;;;;25.88;13.93;;;;;;;;;;4996034;28;20125;-62
2022/01/31 00:56:41;;;;;;;26.45;14.65;;;;;;;;;;4995303;28;20034;-63
2022/01/31 00:59:07;;;;;;;28.40;14.18;;;;;;;;;;4994323;28;20041;-62
2022/01/31 01:01:33;;;;;;;25.70;14.68;;;;;;;;;;4995836;28;20065;-63
2022/01/31 01:03:59;;;;;;;28.58;15.55;;;;;;;;;;4995226;28;20111;-62
2022/01/31 01:06:24;;;;;;;31.38;17.70;;;;;;;;;;4995319;28;20058;-63
2022/01/31 01:08:50;;;;;;;26.83;14.60;;;;;;;;;;4993711;28;20029;-62
2022/01/31 01:11:16;;;;;;;28.52;15.75;;;;;;;;;;4995182;28;20041;-63
2022/01/31 01:13:42;;;;;;;34.92;17.77;;;;;;;;;;4995500;28;20023;-62
2022/01/31 01:16:07;;;;;;;33.03;16.90;;;;;;;;;;4994063;28;20481;-62
2022/01/31 01:18:33;;;;;;;29.88;16.60;;;;;;;;;;4993209;28;20392;-62
2022/01/31 01:20:59;;;;;;;30.95;16.77;;;;;;;;;;4995371;28;20101;-63
2022/01/31 01:23:25;;;;;;;31.88;17.17;;;;;;;;;;4993507;28;20409;-63
2022/01/31 01:25:51;;;;;;;33.15;16.38;;;;;;;;;;4999829;28;20041;-64
2022/01/31 01:28:20;;;;;;;36.03;18.75;;;;;;;;;;5013099;28;20029;-63
2022/01/31 01:30:47;;;;;;;34.42;17.40;;;;;;;;;;5013461;28;20042;-63
2022/01/31 01:33:19;;;;;;;29.77;16.67;;;;;;;;;;5013148;28;20018;-64
2022/01/31 01:35:50;;;;;;;;;;;;;;;;;;5014103;28;20447;-62
2022/01/31 01:38:18;;;;;;;33.50;17.63;;;;;;;;;;5013970;28;19917;-64
2022/01/31 01:40:46;;;;;;;37.20;21.13;;;;;;;;;;4994810;28;20121;-64
2022/01/31 01:43:15;;;;;;;38.08;19.25;;;;;;;;;;4992913;28;20045;-68
2022/01/31 01:45:42;;;;;;;35.83;19.17;;;;;;;;;;4993279;28;20034;-68
2022/01/31 01:48:11;;;;;;;37.40;20.38;;;;;;;;;;4993011;28;20046;-62
2022/01/31 01:50:39;;;;;;;38.80;19.90;;;;;;;;;;4993706;28;20664;-67
2022/01/31 01:53:06;;;;;;;32.75;17.73;;;;;;;;;;4993461;28;20034;-71
2022/01/31 01:55:32;;;;;;;32.85;19.15;;;;;;;;;;4993171;28;20108;-62
2022/01/31 01:57:59;;;;;;;34.97;18.80;;;;;;;;;;4993436;28;20042;-64
2022/01/31 02:00:43;;;;;;;34.03;17.70;;;;;;;;;;4993072;28;20488;-63
2022/01/31 02:03:09;;;;;;;33.35;18.02;;;;;;;;;;4992864;28;20045;-64
2022/01/31 02:05:36;;;;;;;27.52;14.60;;;;;;;;;;4992692;28;20034;-64
2022/01/31 02:08:04;;;;;;;24.48;13.95;;;;;;;;;;4992649;28;20097;-66
2022/01/31 02:10:29;;;;;;;24.25;12.50;;;;;;;;;;4993891;28;20493;-66
2022/01/31 02:13:26;;;;;;;26.65;13.55;;;;;;;;;;4989294;28;20121;-64
2022/01/31 02:16:08;;;;;;;25.42;12.48;;;;;;;;;;4994458;28;20117;-65
2022/01/31 02:18:48;;;;;;;21.75;11.98;;;;;;;;;;4993867;28;20559;-65
2022/01/31 02:21:28;;;;;;;21.15;11.43;;;;;;;;;;4993027;28;20053;-66
2022/01/31 02:23:54;;;;;;;20.38;11.15;;;;;;;;;;4993226;28;20612;-66
2022/01/31 02:26:39;;;;;;;20.13;11.18;;;;;;;;;;4992407;28;20117;-63
2022/01/31 02:29:12;;;;;;;21.27;11.70;;;;;;;;;;4993008;28;20433;-65
2022/01/31 02:31:45;;;;;;;20.33;11.48;;;;;;;;;;4994167;28;20649;-62
2022/01/31 02:34:12;;;;;;;23.10;10.90;;;;;;;;;;4992239;28;20046;-67
2022/01/31 02:36:38;;;;;;;18.95;11.43;;;;;;;;;;4993779;28;20485;-62
2022/01/31 02:39:06;;;;;;;24.80;12.90;;;;;;;;;;4992201;28;20130;-63
2022/01/31 02:41:38;;;;;;;23.42;12.50;;;;;;;;;;4992132;28;20026;-67
2022/01/31 02:44:08;;;;;;;21.85;11.68;;;;;;;;;;4992551;28;20030;-63
2022/01/31 02:46:37;;;;;;;24.08;12.13;;;;;;;;;;4992422;28;20389;-66
2022/01/31 02:49:03;;;;;;;22.33;12.52;;;;;;;;;;4993000;28;20030;-63
2022/01/31 02:51:31;;;;;;;26.90;13.15;;;;;;;;;;4993242;28;20062;-63
2022/01/31 02:53:58;;;;;;;21.80;11.40;;;;;;;;;;4991449;28;20022;-63
2022/01/31 02:56:23;;;;;;;22.58;11.65;;;;;;;;;;4993187;28;20030;-62
2022/01/31 02:58:49;;;;;;;21.13;10.73;;;;;;;;;;4993173;28;20038;-64
2022/01/31 03:01:16;;;;;;;21.00;11.55;;;;;;;;;;4992243;28;20057;-62
2022/01/31 03:03:43;;;;;;;25.30;12.43;;;;;;;;;;4991490;28;20022;-66
2022/01/31 03:06:09;;;;;;;23.08;12.18;;;;;;;;;;4993095;28;20042;-66
2022/01/31 03:08:35;;;;;;;24.85;12.55;;;;;;;;;;4991678;28;20034;-63
2022/01/31 03:11:14;;;;;;;28.63;12.25;;;;;;;;;;4991710;28;20129;-63
2022/01/31 03:13:56;;;;;;;20.33;11.32;;;;;;;;;;4991450;28;20073;-62
2022/01/31 03:16:21;;;;;;;23.40;12.35;;;;;;;;;;4988328;28;20073;-63
2022/01/31 03:19:09;;;;;;;29.02;13.00;;;;;;;;;;4993032;28;20037;-63
2022/01/31 03:21:36;;;;;;;26.80;14.55;;;;;;;;;;4991823;28;20046;-63
2022/01/31 03:24:02;;;;;;;28.20;15.35;;;;;;;;;;4991911;28;20041;-63
2022/01/31 03:26:29;;;;;;;29.25;15.48;;;;;;;;;;4991616;28;20038;-67
2022/01/31 03:28:54;;;;;;;37.13;18.50;;;;;;;;;;4992910;28;20084;-62
2022/01/31 03:31:21;;;;;;;30.02;15.70;;;;;;;;;;4992953;28;20064;-62
2022/01/31 03:33:48;;;;;;;30.98;15.13;;;;;;;;;;4991309;28;20037;-62
2022/01/31 03:36:15;;;;;;;30.92;15.02;;;;;;;;;;4992766;28;20035;-64
2022/01/31 03:38:41;;;;;;;35.40;18.52;;;;;;;;;;4991048;28;20037;-65
2022/01/31 03:41:17;;;;;;;27.42;15.80;;;;;;;;;;4990805;28;20076;-66
2022/01/31 03:43:43;;;;;;;23.85;12.25;;;;;;;;;;4992475;28;20500;-66
2022/01/31 03:46:09;;;;;;;21.48;11.30;;;;;;;;;;4992408;28;20034;-62
2022/01/31 03:48:35;;;;;;;23.70;12.35;;;;;;;;;;4990407;28;20386;-62
2022/01/31 03:51:04;;;;;;;25.40;12.93;;;;;;;;;;4991556;28;20033;-64
2022/01/31 03:53:33;;;;;;;24.75;11.90;;;;;;;;;;4990878;28;20034;-66
2022/01/31 03:55:59;;;;;;;26.65;11.70;;;;;;;;;;4990799;28;20105;-66
2022/01/31 03:58:26;;;;;;;25.35;11.88;;;;;;;;;;4991032;28;20042;-70
2022/01/31 04:01:00;;;;;;;23.83;11.85;;;;;;;;;;4991425;28;20176;-62
2022/01/31 04:03:26;;;;;;;25.27;13.27;;;;;;;;;;4992630;28;20034;-68
2022/01/31 04:05:51;;;;;;;27.73;14.35;;;;;;;;;;4992099;28;20084;-64
2022/01/31 04:08:17;;;;;;;27.85;14.30;;;;;;;;;;4992190;28;20097;-66
2022/01/31 04:10:43;;;;;;;27.08;13.60;;;;;;;;;;4992466;28;20018;-62
2022/01/31 04:13:09;;;;;;;23.77;13.43;;;;;;;;;;4992554;28;20050;-62
2022/01/31 04:15:35;;;;;;;27.27;14.70;;;;;;;;;;4989526;28;20489;-62
2022/01/31 04:18:02;;;;;;;32.33;15.48;;;;;;;;;;4988758;28;20078;-63
2022/01/31 04:20:28;;;;;;;35.80;16.92;;;;;;;;;;4990203;28;20030;-62
2022/01/31 04:23:05;;;;;;;27.85;14.90;;;;;;;;;;4991707;28;20104;-67
2022/01/31 04:25:43;;;;;;;24.60;14.20;;;;;;;;;;4991978;28;20046;-65
2022/01/31 04:28:18;;;;;;;26.33;14.95;;;;;;;;;;4992340;28;20039;-63
2022/01/31 04:33:31;;;;;;;34.70;15.23;;;;;;;;;;4990435;28;20050;-65
2022/01/31 04:35:56;;;;;;;33.78;15.10;;;;;;;;;;4991810;28;20178;-64
2022/01/31 04:38:23;;;;;;;25.95;13.73;;;;;;;;;;4991169;28;20118;-63
2022/01/31 04:40:48;;;;;;;24.50;12.38;;;;;;;;;;4992180;28;20026;-62
2022/01/31 04:43:14;;;;;;;27.92;12.27;;;;;;;;;;4992159;28;20128;-67
2022/01/31 04:45:47;;;;;;;26.50;13.20;;;;;;;;;;4990155;28;20042;-62
2022/01/31 04:48:14;;;;;;;25.58;13.38;;;;;;;;;;5006180;28;20039;-66
2022/01/31 04:50:40;;;;;;;28.23;15.70;;;;;;;;;;4992938;28;20026;-68
2022/01/31 04:53:05;;;;;;;35.08;17.65;;;;;;;;;;4992872;28;20046;-65
2022/01/31 04:55:31;;;;;;;34.33;18.15;;;;;;;;;;4993021;28;20029;-63
2022/01/31 04:57:57;;;;;;;37.85;18.10;;;;;;;;;;4992535;28;20110;-63
2022/01/31 05:00:23;;;;;;;34.58;16.70;;;;;;;;;;4991486;28;20038;-62
2022/01/31 05:02:49;;;;;;;45.25;19.88;;;;;;;;;;4992732;28;20050;-63
2022/01/31 05:05:14;;;;;;;31.42;16.15;;;;;;;;;;4993013;28;20110;-64
2022/01/31 05:07:40;;;;;;;36.30;17.65;;;;;;;;;;4992603;28;20121;-63
2022/01/31 05:10:06;;;;;;;33.03;16.50;;;;;;;;;;4992552;28;20110;-64
2022/01/31 05:12:32;;;;;;;37.70;16.33;;;;;;;;;;4991988;28;20042;-64
2022/01/31 05:14:58;;;;;;;46.97;18.17;;;;;;;;;;4992636;28;20114;-62
2022/01/31 05:17:23;;;;;;;32.35;19.27;;;;;;;;;;4992154;28;20045;-64
2022/01/31 05:19:49;;;;;;;36.90;18.33;;;;;;;;;;4995967;28;20059;-62
2022/01/31 05:22:15;;;;;;;41.70;18.15;;;;;;;;;;4995842;28;20071;-62
2022/01/31 05:24:40;;;;;;;33.13;16.55;;;;;;;;;;4995703;28;20044;-63
2022/01/31 05:27:06;;;;;;;46.63;19.92;;;;;;;;;;4995945;28;20042;-63
2022/01/31 05:29:32;;;;;;;47.15;18.73;;;;;;;;;;4995784;28;20030;-63
2022/01/31 05:31:57;;;;;;;33.05;18.50;;;;;;;;;;4995520;28;20144;-65
2022/01/31 05:34:24;;;;;;;38.08;17.67;;;;;;;;;;4995171;28;20022;-63
2022/01/31 05:36:55;;;;;;;52.10;17.67;;;;;;;;;;4995386;28;20042;-62
2022/01/31 05:39:24;;;;;;;43.05;16.58;;;;;;;;;;4994534;28;20050;-64
2022/01/31 05:41:50;;;;;;;35.83;16.30;;;;;;;;;;4995842;28;20026;-65
2022/01/31 05:44:17;;;;;;;45.00;17.05;;;;;;;;;;4995590;28;20480;-62
2022/01/31 05:46:42;;;;;;;28.90;15.43;;;;;;;;;;4993032;28;20362;-69
2022/01/31 05:49:08;;;;;;;31.17;16.17;;;;;;;;;;5013539;28;20056;-64
2022/01/31 05:51:48;;;;;;;36.40;15.82;;;;;;;;;;5014786;28;20435;-62
2022/01/31 05:54:14;;;;;;;32.13;17.08;;;;;;;;;;5014573;28;20367;-62
2022/01/31 05:56:40;;;;;;;44.70;21.40;;;;;;;;;;5014352;28;20033;-63
2022/01/31 05:59:05;;;;;;;45.85;21.80;;;;;;;;;;5014377;28;20041;-62
2022/01/31 06:01:31;;;;;;;44.28;20.23;;;;;;;;;;5014526;28;20030;-70
2022/01/31 06:03:57;;;;;;;33.75;17.75;;;;;;;;;;5014558;28;20044;-63
2022/01/31 06:06:22;;;;;;;31.30;16.33;;;;;;;;;;5004699;28;20022;-62
2022/01/31 06:08:48;;;;;;;36.05;15.63;;;;;;;;;;4981821;28;20059;-66
2022/01/31 06:11:14;;;;;;;32.80;15.60;;;;;;;;;;4984268;28;20098;-69
2022/01/31 06:13:44;;;;;;;27.42;13.82;;;;;;;;;;4977771;28;20106;-64
2022/01/31 06:16:10;;;;;;;28.85;13.95;;;;;;;;;;4983146;28;20035;-69
2022/01/31 06:18:36;;;;;;;39.05;16.00;;;;;;;;;;4974608;28;20023;-64
2022/01/31 06:21:03;;;;;;;48.38;17.13;;;;;;;;;;4975131;28;20046;-63
2022/01/31 06:23:29;;;;;;;41.08;16.25;;;;;;;;;;4975242;28;20548;-64
2022/01/31 06:25:55;;;;;;;29.73;13.38;;;;;;;;;;5008235;28;20030;-67
2022/01/31 06:28:21;;;;;;;20.45;12.90;;;;;;;;;;5012285;28;20029;-69
2022/01/31 06:30:56;;;;;;;28.60;14.48;;;;;;;;;;5011224;28;20518;-67
2022/01/31 06:33:24;;;;;;;26.83;15.38;;;;;;;;;;5018797;28;20052;-69
2022/01/31 06:35:50;;;;;;;34.30;17.42;;;;;;;;;;4986135;28;20034;-66
2022/01/31 06:38:16;;;;;;;31.58;18.35;;;;;;;;;;4966001;28;20083;-65
2022/01/31 06:40:42;;;;;;;33.50;18.70;;;;;;;;;;4963914;28;20030;-67
2022/01/31 06:43:08;;;;;;;36.85;18.83;;;;;;;;;;4955403;28;20035;-64
2022/01/31 06:45:34;;;;;;;32.72;18.13;;;;;;;;;;4968027;28;20448;-68
2022/01/31 06:47:59;;;;;;;25.80;17.38;;;;;;;;;;4973956;28;20050;-75
2022/01/31 06:50:25;;;;;;;31.27;17.17;;;;;;;;;;4974608;28;20041;-65
2022/01/31 06:52:55;;;;;;;27.23;17.40;;;;;;;;;;4974631;28;20035;-76
2022/01/31 06:55:21;;;;;;;40.53;20.38;;;;;;;;;;4974838;28;20023;-69
2022/01/31 06:57:48;;;;;;;43.63;21.98;;;;;;;;;;4974745;28;20094;-69
2022/01/31 07:00:15;;;;;;;38.33;20.55;;;;;;;;;;4991040;28;20030;-67
2022/01/31 07:02:41;;;;;;;38.78;22.92;;;;;;;;;;4994142;28;20061;-68
2022/01/31 07:05:07;;;;;;;40.53;21.92;;;;;;;;;;4993968;28;20469;-67
2022/01/31 07:07:33;;;;;;;40.78;22.13;;;;;;;;;;4993248;28;20066;-67
2022/01/31 07:10:02;;;;;;;41.20;21.98;;;;;;;;;;4960235;28;20467;-64
2022/01/31 07:12:33;;;;;;;46.20;23.58;;;;;;;;;;4953802;28;20046;-65
2022/01/31 07:15:00;;;;;;;42.65;23.40;;;;;;;;;;4954460;28;20043;-66
2022/01/31 07:17:26;;;;;;;47.47;22.67;;;;;;;;;;4991231;28;20026;-67
2022/01/31 07:19:53;;;;;;;50.58;23.98;;;;;;;;;;4993245;28;20049;-68
2022/01/31 07:22:21;;;;;;;48.13;23.05;;;;;;;;;;4993144;28;20053;-67
2022/01/31 07:24:52;;;;;;;44.33;22.15;;;;;;;;;;4993501;28;20402;-66
2022/01/31 07:27:17;;;;;;;39.75;22.58;;;;;;;;;;4993581;28;20045;-65
2022/01/31 07:29:45;;;;;;;39.72;21.00;;;;;;;;;;4993315;28;20027;-66
2022/01/31 07:32:11;;;;;;;37.50;21.85;;;;;;;;;;4993124;28;20593;-66
2022/01/31 07:34:40;;;;;;;42.35;21.58;;;;;;;;;;4993651;28;20033;-67
2022/01/31 07:37:06;;;;;;;39.45;22.27;;;;;;;;;;4992299;28;20026;-68
2022/01/31 07:39:32;;;;;;;47.95;20.80;;;;;;;;;;4991909;28;20104;-68
2022/01/31 07:41:58;;;;;;;28.50;16.00;;;;;;;;;;4992516;28;20053;-70
2022/01/31 07:44:24;;;;;;;31.20;13.50;;;;;;;;;;4992509;28;20138;-74
2022/01/31 07:46:49;;;;;;;14.80;8.57;;;;;;;;;;4993253;28;20038;-78
2022/01/31 07:49:16;;;;;;;16.63;9.73;;;;;;;;;;4993309;28;20489;-72
2022/01/31 07:51:41;;;;;;;18.63;9.25;;;;;;;;;;4993085;28;20124;-73
2022/01/31 07:54:08;;;;;;;15.98;8.93;;;;;;;;;;4992781;28;20190;-73
2022/01/31 07:56:34;;;;;;;16.60;8.82;;;;;;;;;;4993183;28;20495;-68
2022/01/31 07:59:00;;;;;;;17.80;9.35;;;;;;;;;;4992481;28;20105;-76
2022/01/31 08:01:26;;;;;;;14.88;9.32;;;;;;;;;;4992490;28;20045;-71
2022/01/31 08:03:53;;;;;;;16.15;8.35;;;;;;;;;;4992505;28;20036;-68
2022/01/31 08:06:19;;;;;;;20.83;8.18;;;;;;;;;;4992160;28;20122;-68
2022/01/31 08:08:44;;;;;;;13.98;8.05;;;;;;;;;;4992820;28;20054;-68
2022/01/31 08:11:10;;;;;;;14.73;8.02;;;;;;;;;;4992853;28;20038;-68
2022/01/31 08:13:37;;;;;;;19.13;8.55;;;;;;;;;;4993304;28;20389;-69
2022/01/31 08:18:40;;;;;;;15.95;7.72;;;;;;;;;;4992787;28;20465;-69
2022/01/31 08:21:11;;;;;;;21.73;7.75;;;;;;;;;;4992793;28;20046;-71
2022/01/31 08:23:38;;;;;;;14.75;7.97;;;;;;;;;;4992771;28;20165;-71
2022/01/31 08:26:12;;;;;;;16.00;7.72;;;;;;;;;;4992986;28;20034;-67
2022/01/31 08:28:42;;;;;;;14.02;7.80;;;;;;;;;;4993087;28;20394;-71
2022/01/31 08:33:43;;;;;;;16.88;8.27;;;;;;;;;;4992947;28;20085;-70
2022/01/31 08:36:09;;;;;;;15.88;8.15;;;;;;;;;;4992274;28;20038;-70
2022/01/31 08:38:36;;;;;;;15.52;7.68;;;;;;;;;;4992551;28;20037;-71
2022/01/31 08:41:03;;;;;;;18.00;8.30;;;;;;;;;;4992749;28;20045;-72
2022/01/31 08:43:29;;;;;;;13.45;7.28;;;;;;;;;;4992765;28;20030;-67
2022/01/31 08:45:56;;;;;;;17.05;7.30;;;;;;;;;;4992211;28;20081;-70
2022/01/31 08:48:26;;;;;;;17.00;8.32;;;;;;;;;;4983381;28;20453;-68
2022/01/31 08:50:53;;;;;;;13.57;7.25;;;;;;;;;;4964142;28;20038;-69
2022/01/31 08:53:19;;;;;;;19.65;10.95;;;;;;;;;;4973856;28;20466;-68
2022/01/31 08:55:54;;;;;;;22.55;11.02;;;;;;;;;;4975450;28;20094;-66
2022/01/31 08:58:21;;;;;;;14.75;8.90;;;;;;;;;;4975483;28;20158;-71
2022/01/31 09:00:51;;;;;;;22.83;12.68;;;;;;;;;;4975670;28;20052;-67
2022/01/31 09:03:35;;;;;;;21.52;9.25;;;;;;;;;;4974925;28;20081;-70
2022/01/31 09:06:02;;;;;;;24.33;11.73;;;;;;;;;;4975861;28;20042;-70
2022/01/31 09:08:28;;;;;;;19.25;10.00;;;;;;;;;;4975393;28;20397;-70
2022/01/31 09:10:54;;;;;;;16.05;10.32;;;;;;;;;;4985932;28;20038;-68
2022/01/31 09:13:19;;;;;;;19.05;11.63;;;;;;;;;;4995178;28;20113;-69
2022/01/31 09:15:45;;;;;;;22.02;12.00;;;;;;;;;;4994813;28;20508;-68
2022/01/31 09:18:11;;;;;;;16.25;10.60;;;;;;;;;;4994866;28;20056;-67
2022/01/31 09:20:38;;;;;;;20.80;11.70;;;;;;;;;;4994596;28;20053;-70
2022/01/31 09:23:05;;;;;;;26.13;11.70;;;;;;;;;;4994843;28;20042;-71
2022/01/31 09:25:31;;;;;;;21.45;11.68;;;;;;;;;;4993491;28;20046;-73
2022/01/31 09:27:59;;;;;;;20.85;11.60;;;;;;;;;;4994271;28;20160;-68
2022/01/31 09:30:27;;;;;;;25.42;11.93;;;;;;;;;;4993121;28;20084;-71
2022/01/31 09:32:56;;;;;;;20.95;11.57;;;;;;;;;;4970682;28;20125;-70
2022/01/31 09:35:23;;;;;;;16.80;10.35;;;;;;;;;;4992126;28;20143;-69
2022/01/31 09:37:49;;;;;;;23.80;12.68;;;;;;;;;;4966635;28;20023;-71
2022/01/31 09:40:19;;;;;;;20.98;11.07;;;;;;;;;;4975022;28;20386;-70
2022/01/31 09:48:33;;;;;;;19.98;11.60;;;;;;;;;;4974743;28;20062;-75
2022/01/31 09:51:00;;;;;;;18.42;9.07;;;;;;;;;;4975695;28;20058;-70
2022/01/31 09:53:26;;;;;;;14.88;7.88;;;;;;;;;;4975108;28;20019;-74
2022/01/31 09:55:53;;;;;;;16.50;8.23;;;;;;;;;;4967335;28;20480;-70
2022/01/31 09:58:19;;;;;;;15.77;7.40;;;;;;;;;;4963706;28;20027;-71
2022/01/31 10:00:45;;;;;;;13.70;7.43;;;;;;;;;;4953812;28;20445;-74
2022/01/31 10:03:12;;;;;;;15.48;7.68;;;;;;;;;;4954435;28;20027;-73
2022/01/31 10:05:40;;;;;;;17.98;8.23;;;;;;;;;;4956286;28;20110;-75
2022/01/31 10:08:14;;;;;;;15.70;7.30;;;;;;;;;;4955820;28;20031;-77
2022/01/31 10:10:43;;;;;;;10.77;6.72;;;;;;;;;;4956340;28;20036;-74
2022/01/31 10:16:29;;;;;;;14.13;6.72;;;;;;;;;;4967630;28;20117;-66
2022/01/31 10:19:09;;;;;;;11.65;5.88;;;;;;;;;;4973455;28;20039;-70
2022/01/31 10:22:01;;;;;;;11.65;5.95;;;;;;;;;;4965029;28;20050;-68
2022/01/31 10:24:29;;;;;;;13.18;6.53;;;;;;;;;;4972075;28;20358;-72
2022/01/31 10:26:55;;;;;;;16.10;7.07;;;;;;;;;;4971130;28;20027;-72
2022/01/31 10:29:23;;;;;;;12.88;6.70;;;;;;;;;;4967036;28;20110;-70
2022/01/31 10:32:07;;;;;;;11.32;6.55;;;;;;;;;;4955601;28;20031;-71
2022/01/31 10:34:40;;;;;;;22.17;6.60;;;;;;;;;;4956269;28;20071;-68
2022/01/31 10:37:15;;;;;;;11.93;6.00;;;;;;;;;;4968687;28;20474;-68
2022/01/31 10:54:28;;;;;;;15.02;7.05;;;;;;;;;;4973853;28;20503;-69
2022/01/31 10:56:57;;;;;;;12.00;7.22;;;;;;;;;;4966058;28;20065;-68
2022/01/31 10:59:31;;;;;;;23.63;8.93;;;;;;;;;;4954782;28;20110;-70
2022/01/31 11:01:59;;;;;;;11.65;6.50;;;;;;;;;;4954788;28;20058;-67
2022/01/31 11:04:30;;;;;;;10.82;5.30;;;;;;;;;;4954732;28;20089;-68
2022/01/31 11:07:03;;;;;;;17.50;6.18;;;;;;;;;;4964907;28;20492;-67
2022/01/31 11:09:30;;;;;;;13.27;5.57;;;;;;;;;;4978154;28;20035;-69
2022/01/31 11:11:56;;;;;;;15.45;6.07;;;;;;;;;;4962201;28;20186;-68
2022/01/31 11:14:22;;;;;;;10.32;5.30;;;;;;;;;;4973976;28;20039;-68
2022/01/31 11:16:49;;;;;;;13.27;5.70;;;;;;;;;;4973109;28;20081;-69
2022/01/31 11:19:23;;;;;;;12.95;6.28;;;;;;;;;;4973925;28;20046;-70
2022/01/31 11:21:49;;;;;;;;;;;;;;;;;;4973161;28;20178;-70
2022/01/31 11:24:22;;;;;;;10.50;4.95;;;;;;;;;;4973879;28;20355;-69
2022/01/31 11:26:56;;;;;;;9.85;5.20;;;;;;;;;;4973649;28;20046;-68
2022/01/31 11:29:22;;;;;;;8.75;5.07;;;;;;;;;;4973888;28;20170;-71
2022/01/31 11:31:48;;;;;;;14.55;6.30;;;;;;;;;;4958824;28;20030;-68
2022/01/31 11:34:15;;;;;;;10.93;5.47;;;;;;;;;;4967827;28;20470;-69
2022/01/31 11:36:42;;;;;;;10.00;5.40;;;;;;;;;;4973821;28;20054;-70
2022/01/31 11:39:13;;;;;;;9.95;5.78;;;;;;;;;;4973853;28;20484;-69
2022/01/31 11:41:56;;;;;;;13.35;6.05;;;;;;;;;;4974147;28;20042;-70
2022/01/31 11:44:43;;;;;;;15.38;6.28;;;;;;;;;;4973814;28;20443;-71
2022/01/31 11:47:10;;;;;;;12.07;5.82;;;;;;;;;;4974056;28;20034;-74
2022/01/31 11:50:09;;;;;;;12.60;6.13;;;;;;;;;;4973628;28;20043;-74
2022/01/31 11:52:44;;;;;;;10.27;5.22;;;;;;;;;;4973338;28;20034;-71
2022/01/31 11:55:12;;;;;;;12.82;5.97;;;;;;;;;;4968015;28;20149;-74
2022/01/31 11:57:39;;;;;;;9.75;6.45;;;;;;;;;;4992339;28;20026;-74
2022/01/31 12:00:08;;;;;;;12.10;6.75;;;;;;;;;;4992021;28;20035;-79
2022/01/31 12:02:45;;;;;;;8.32;4.63;;;;;;;;;;4992728;28;20038;-73
2022/01/31 12:05:20;;;;;;;8.43;5.20;;;;;;;;;;4989928;28;20031;-71
2022/01/31 12:07:47;;;;;;;9.43;5.03;;;;;;;;;;4952825;28;20478;-71
2022/01/31 12:10:22;;;;;;;11.20;5.40;;;;;;;;;;4952156;28;20110;-71
2022/01/31 12:12:57;;;;;;;13.93;5.00;;;;;;;;;;4954087;28;20042;-69
2022/01/31 12:15:40;;;;;;;14.05;5.80;;;;;;;;;;4953655;28;20042;-69
2022/01/31 12:24:06;;;;;;;7.80;5.20;;;;;;;;;;4953951;28;20395;-70
2022/01/31 12:26:32;;;;;;;13.65;5.72;;;;;;;;;;4953888;28;20082;-69
2022/01/31 12:29:01;;;;;;;11.75;4.80;;;;;;;;;;4953930;28;20040;-70
2022/01/31 12:31:45;;;;;;;11.43;5.07;;;;;;;;;;4954255;28;20463;-69
2022/01/31 12:34:31;;;;;;;9.30;4.60;;;;;;;;;;4952316;28;20050;-71
2022/01/31 12:37:01;;;;;;;11.38;4.85;;;;;;;;;;4952311;28;20039;-67
2022/01/31 12:39:38;;;;;;;9.80;5.07;;;;;;;;;;4953557;28;20039;-68
2022/01/31 12:42:51;;;;;;;7.65;3.95;;;;;;;;;;4952454;28;20054;-69
2022/01/31 12:45:23;;;;;;;10.00;5.22;;;;;;;;;;4953817;28;20073;-68
2022/01/31 12:48:24;;;;;;;10.40;4.32;;;;;;;;;;4954146;28;20454;-68
2022/01/31 12:50:53;;;;;;;10.88;5.15;;;;;;;;;;4953839;28;20495;-69
2022/01/31 12:53:42;;;;;;;13.40;6.35;;;;;;;;;;4953887;28;20019;-67
2022/01/31 12:56:21;;;;;;;19.45;6.28;;;;;;;;;;4953894;28;20046;-68
2022/01/31 12:58:54;;;;;;;7.78;4.60;;;;;;;;;;4954052;28;20107;-68
2022/01/31 13:01:31;;;;;;;7.05;4.13;;;;;;;;;;4953190;28;20031;-69
2022/01/31 13:04:20;;;;;;;15.48;7.15;;;;;;;;;;4953564;28;20035;-68
2022/01/31 13:06:52;;;;;;;17.25;8.52;;;;;;;;;;4954107;28;20058;-67
2022/01/31 13:09:24;;;;;;;17.02;5.63;;;;;;;;;;4954080;28;20042;-66
2022/01/31 13:12:04;;;;;;;9.90;5.25;;;;;;;;;;4954087;28;20105;-70
2022/01/31 13:14:40;;;;;;;5.95;3.67;;;;;;;;;;4954239;28;20058;-68
2022/01/31 13:17:12;;;;;;;12.23;4.30;;;;;;;;;;4954229;28;20339;-70
2022/01/31 13:19:59;;;;;;;8.27;4.70;;;;;;;;;;4954126;28;20059;-68
2022/01/31 13:25:10;;;;;;;13.97;4.83;;;;;;;;;;4954430;28;20043;-68
2022/01/31 13:27:42;;;;;;;9.80;4.82;;;;;;;;;;4953893;28;20043;-68
2022/01/31 13:30:10;;;;;;;6.70;3.85;;;;;;;;;;4954150;28;20371;-69
2022/01/31 13:32:37;;;;;;;11.85;4.47;;;;;;;;;;4954100;28;20023;-69
2022/01/31 13:35:08;;;;;;;11.07;6.18;;;;;;;;;;4953998;28;20042;-71
2022/01/31 13:37:47;;;;;;;9.85;4.38;;;;;;;;;;4953659;28;20394;-69
2022/01/31 13:40:15;;;;;;;6.28;3.55;;;;;;;;;;4956974;28;20047;-68
2022/01/31 13:42:43;;;;;;;7.32;3.72;;;;;;;;;;4957243;28;20066;-69
2022/01/31 13:45:25;;;;;;;5.53;3.47;;;;;;;;;;4957528;28;20046;-68
2022/01/31 13:47:58;;;;;;;7.53;3.90;;;;;;;;;;4957417;28;20036;-69
2022/01/31 13:50:42;;;;;;;7.70;3.22;;;;;;;;;;4957262;28;20039;-68
2022/01/31 13:53:16;;;;;;;8.73;3.67;;;;;;;;;;4956891;28;20066;-73
2022/01/31 13:55:49;;;;;;;9.73;4.15;;;;;;;;;;4956588;28;20404;-70
2022/01/31 13:58:26;;;;;;;8.70;3.78;;;;;;;;;;4956775;28;20101;-72
2022/01/31 14:00:53;;;;;;;6.22;3.47;;;;;;;;;;4957059;28;20086;-67
2022/01/31 14:03:21;;;;;;;14.82;4.80;;;;;;;;;;4956759;28;20023;-68
2022/01/31 14:05:54;;;;;;;7.00;3.40;;;;;;;;;;4981903;28;20034;-67
2022/01/31 14:08:42;;;;;;;7.93;3.67;;;;;;;;;;4995108;28;20039;-66
2022/01/31 14:11:14;;;;;;;6.82;3.20;;;;;;;;;;4995385;28;20049;-68
2022/01/31 14:13:48;;;;;;;7.85;4.07;;;;;;;;;;4995491;28;20044;-70
2022/01/31 14:16:16;;;;;;;;;;;;;;;;;;4994405;28;20042;-69
2022/01/31 14:18:47;;;;;;;6.57;4.30;;;;;;;;;;4995026;28;20261;-68
2022/01/31 14:21:14;;;;;;;8.07;3.75;;;;;;;;;;4994680;28;20042;-68
2022/01/31 14:23:43;;;;;;;8.43;4.10;;;;;;;;;;4995378;28;20065;-68
2022/01/31 14:26:12;;;;;;;8.25;3.85;;;;;;;;;;4995119;28;20523;-67
2022/01/31 14:28:55;;;;;;;8.25;4.18;;;;;;;;;;4994940;28;20039;-67
2022/01/31 14:31:42;;;;;;;6.40;3.90;;;;;;;;;;4995057;28;20519;-69
2022/01/31 14:34:11;;;;;;;10.35;4.93;;;;;;;;;;4994845;28;20396;-69
2022/01/31 14:36:53;;;;;;;9.13;3.80;;;;;;;;;;4994874;28;20048;-70
2022/01/31 14:47:47;;;;;;;11.88;5.95;;;;;;;;;;4994392;28;20038;-70
2022/01/31 14:50:17;;;;;;;13.57;5.50;;;;;;;;;;4994267;28;20481;-69
2022/01/31 14:52:47;;;;;;;8.93;4.60;;;;;;;;;;4994427;28;20042;-68
2022/01/31 14:55:20;;;;;;;7.63;4.28;;;;;;;;;;4994472;28;20045;-68
2022/01/31 14:57:49;;;;;;;10.52;4.82;;;;;;;;;;4993689;28;20034;-68
2022/01/31 15:00:18;;;;;;;9.50;5.18;;;;;;;;;;4994351;28;20034;-67
2022/01/31 15:02:44;;;;;;;9.10;5.25;;;;;;;;;;4993983;28;20034;-67
2022/01/31 15:05:12;;;;;;;7.07;3.20;;;;;;;;;;4994072;28;20030;-69
2022/01/31 15:07:39;;;;;;;6.85;3.78;;;;;;;;;;4994141;28;20030;-68
2022/01/31 15:10:06;;;;;;;6.90;4.00;;;;;;;;;;4994231;28;20042;-67
2022/01/31 15:12:33;;;;;;;8.27;4.30;;;;;;;;;;4976813;28;20045;-68
2022/01/31 15:14:58;;;;;;;7.82;3.78;;;;;;;;;;4973761;28;20108;-67
2022/01/31 15:17:26;;;;;;;6.63;4.00;;;;;;;;;;4973019;28;20082;-68
2022/01/31 15:19:52;;;;;;;7.38;4.30;;;;;;;;;;4973251;28;20030;-68
2022/01/31 15:22:18;;;;;;;10.65;5.78;;;;;;;;;;4973229;28;20051;-66
2022/01/31 15:24:44;;;;;;;9.82;5.32;;;;;;;;;;4973126;28;20046;-68
2022/01/31 15:27:10;;;;;;;10.38;5.38;;;;;;;;;;4972878;28;20034;-67
2022/01/31 15:29:37;;;;;;;14.18;4.82;;;;;;;;;;4973637;28;20046;-66